Time;durP1;ratioP1;P1;durP2;ratioP2;P2;SDS_P1;SDS_P2;PMS_P1;PMS_P2;Temp;Humidity;BMP_temperature;BMP_pressure;BME280_temperature;BME280_humidity;BME280_pressure;Samples;Min_cycle;Max_cycle;Signal;HPM_P1;HPM_P2
2022/08/29 00:01:07;;;;;;;6.70;2.97;;;;;;;12.38;90.23;68152.03;4893446;29;20347;-77
2022/08/29 00:03:34;;;;;;;6.38;3.00;;;;;;;12.42;89.94;68156.00;4891012;29;20068;-76
2022/08/29 00:05:59;;;;;;;5.38;3.33;;;;;;;12.38;90.04;68143.47;4893401;29;20036;-77
2022/08/29 00:08:25;;;;;;;6.70;3.00;;;;;;;12.38;89.68;68149.38;4903238;29;20496;-77
2022/08/29 00:10:51;;;;;;;5.30;3.60;;;;;;;12.33;90.87;68146.34;4892604;29;20052;-77
2022/08/29 00:13:17;;;;;;;8.85;3.95;;;;;;;12.37;91.21;68148.25;4892279;29;20697;-77
2022/08/29 00:15:42;;;;;;;7.07;3.90;;;;;;;12.40;92.40;68151.09;4888330;29;20059;-76
2022/08/29 00:18:08;;;;;;;8.02;3.92;;;;;;;12.50;92.23;68161.88;4908610;29;20046;-77
2022/08/29 00:20:35;;;;;;;10.35;4.38;;;;;;;12.46;91.15;68157.91;4890528;29;20047;-77
2022/08/29 00:23:03;;;;;;;8.27;4.65;;;;;;;12.41;91.82;68152.78;4893111;29;20416;-77
2022/08/29 00:25:29;;;;;;;6.63;4.47;;;;;;;12.44;92.00;68155.06;4885688;29;20048;-77
2022/08/29 00:27:55;;;;;;;6.43;4.47;;;;;;;12.43;91.87;68154.50;4891080;29;20056;-77
2022/08/29 00:30:21;;;;;;;7.22;4.40;;;;;;;12.44;92.14;68155.06;4883796;29;20464;-77
2022/08/29 00:32:46;;;;;;;7.72;4.57;;;;;;;;;;4884299;29;20049;-77
2022/08/29 00:35:23;;;;;;;9.10;4.20;;;;;;;12.36;91.83;68151.88;4886461;29;20048;-77
2022/08/29 00:37:50;;;;;;;5.63;3.63;;;;;;;12.31;91.63;68144.06;4893046;29;20122;-77
2022/08/29 00:40:17;;;;;;;8.80;3.80;;;;;;;;;;4890339;29;20132;-76
2022/08/29 00:42:43;;;;;;;8.35;3.70;;;;;;;12.21;91.46;68129.47;4894108;29;20523;-77
2022/08/29 00:45:10;;;;;;;6.25;3.63;;;;;;;12.14;91.35;68124.75;4891633;29;20044;-77
2022/08/29 00:47:39;;;;;;;6.53;3.90;;;;;;;;;;4891137;29;20100;-76
2022/08/29 00:50:07;;;;;;;5.28;3.70;;;;;;;12.07;91.32;68108.81;4893363;29;20108;-77
2022/08/29 00:52:41;;;;;;;7.53;4.00;;;;;;;12.02;91.76;68113.78;4891784;29;20139;-77
2022/08/29 00:55:12;;;;;;;7.68;3.70;;;;;;;11.88;92.54;68093.13;4909303;29;20079;-77
2022/08/29 00:57:43;;;;;;;7.05;4.40;;;;;;;;;;4910779;29;20052;-76
2022/08/29 01:00:09;;;;;;;8.98;4.35;;;;;;;;;;4911352;29;20044;-77
2022/08/29 01:02:35;;;;;;;6.72;4.22;;;;;;;;;;4912948;29;20472;-77
2022/08/29 01:05:00;;;;;;;7.53;4.15;;;;;;;;;;4912121;29;20519;-76
2022/08/29 01:07:26;;;;;;;6.72;4.00;;;;;;;11.66;92.98;68069.25;4887279;29;20060;-76
2022/08/29 01:09:52;;;;;;;7.70;3.95;;;;;;;11.57;93.38;68059.03;4902407;29;20066;-77
2022/08/29 01:12:20;;;;;;;11.27;4.55;;;;;;;11.52;93.20;68053.91;4908627;29;20045;-76
2022/08/29 01:14:48;;;;;;;7.78;4.05;;;;;;;;;;4903872;29;20564;-77
2022/08/29 01:17:18;;;;;;;8.65;4.57;;;;;;;11.46;93.29;68049.75;4909744;29;20078;-76
2022/08/29 01:20:01;;;;;;;8.13;4.20;;;;;;;;;;4909009;29;20044;-77
2022/08/29 01:22:51;;;;;;;9.07;4.28;;;;;;;;;;4909589;29;20104;-77
2022/08/29 01:25:20;;;;;;;8.85;4.55;;;;;;;11.19;94.31;68016.44;4914491;29;20048;-76
2022/08/29 01:27:51;;;;;;;10.35;4.85;;;;;;;11.12;94.54;68011.16;4884775;29;20734;-77
2022/08/29 01:30:17;;;;;;;8.73;4.60;;;;;;;11.09;94.78;68005.66;4911925;29;20044;-77
2022/08/29 01:32:43;;;;;;;7.72;4.35;;;;;;;11.09;94.89;68010.41;4911315;29;20059;-77
2022/08/29 01:35:09;;;;;;;8.27;5.03;;;;;;;;;;4911200;29;20110;-77
2022/08/29 01:37:37;;;;;;;7.60;4.55;;;;;;;11.13;93.85;68012.28;4910037;29;20052;-77
2022/08/29 01:40:03;;;;;;;6.88;4.50;;;;;;;;;;4910757;29;20044;-77
2022/08/29 01:42:28;;;;;;;8.75;4.88;;;;;;;11.10;94.94;68008.88;4911023;29;20618;-77
2022/08/29 01:44:55;;;;;;;10.00;5.10;;;;;;;;;;4911249;29;20048;-76
2022/08/29 01:47:24;;;;;;;7.95;4.72;;;;;;;11.10;94.94;68008.88;4892980;29;20048;-77
2022/08/29 01:49:50;;;;;;;7.85;4.78;;;;;;;10.98;94.68;67993.16;4909843;29;20749;-77
2022/08/29 01:52:15;;;;;;;7.15;4.88;;;;;;;10.92;94.85;67989.03;4910112;29;20134;-77
2022/08/29 01:54:42;;;;;;;9.85;4.63;;;;;;;10.90;94.76;67978.75;4909851;29;20036;-77
2022/08/29 01:57:09;;;;;;;8.63;4.88;;;;;;;10.83;94.79;67976.72;4909562;29;20056;-76
2022/08/29 01:59:35;;;;;;;8.27;4.63;;;;;;;;;;4911643;29;20040;-76
2022/08/29 02:02:04;;;;;;;11.43;4.68;;;;;;;;;;4908482;29;20115;-77
2022/08/29 02:04:31;;;;;;;8.55;4.80;;;;;;;10.89;94.88;67982.94;4909717;29;20036;-77
2022/08/29 02:06:56;;;;;;;9.23;4.97;;;;;;;;;;4909342;29;20146;-77
2022/08/29 02:09:23;;;;;;;7.55;4.72;;;;;;;10.85;94.48;67978.97;4908102;29;20214;-77
2022/08/29 02:11:49;;;;;;;9.57;5.20;;;;;;;10.83;94.70;67976.72;4888045;29;20070;-76
2022/08/29 02:14:15;;;;;;;6.07;4.43;;;;;;;10.83;94.67;67977.28;4901281;29;20151;-77
2022/08/29 02:16:40;;;;;;;9.05;4.75;;;;;;;10.83;94.31;67976.72;4916199;29;20044;-76
2022/08/29 02:19:05;;;;;;;8.07;5.05;;;;;;;10.78;94.73;67971.59;4911076;29;20040;-76
2022/08/29 02:21:31;;;;;;;8.52;4.93;;;;;;;10.79;94.52;67972.19;4909387;29;20044;-77
2022/08/29 02:23:59;;;;;;;8.00;4.55;;;;;;;10.80;94.18;67973.31;4907877;29;20051;-77
2022/08/29 02:26:26;;;;;;;7.75;4.70;;;;;;;10.79;93.88;67972.75;4910245;29;20127;-77
2022/08/29 02:28:52;;;;;;;7.10;4.47;;;;;;;10.80;93.87;67973.31;4909152;29;20099;-77
2022/08/29 02:31:19;;;;;;;9.48;4.95;;;;;;;;;;4907582;29;20051;-77
2022/08/29 02:33:45;;;;;;;7.70;5.03;;;;;;;10.81;94.38;67974.44;4908497;29;20048;-77
2022/08/29 02:36:11;;;;;;;7.35;4.80;;;;;;;10.75;94.77;67970.28;4908421;29;20048;-77
2022/08/29 02:38:37;;;;;;;6.90;4.93;;;;;;;10.79;94.96;67974.84;4902718;29;20044;-77
2022/08/29 02:41:02;;;;;;;6.65;4.55;;;;;;;10.86;94.26;67979.53;4910554;29;20054;-77
2022/08/29 02:43:28;;;;;;;9.50;5.45;;;;;;;;;;4906888;29;20044;-77
2022/08/29 02:45:53;;;;;;;7.88;5.18;;;;;;;10.77;94.27;67969.91;4912813;29;20464;-77
2022/08/29 02:48:20;;;;;;;8.52;5.45;;;;;;;10.75;94.74;67967.63;4903023;29;20048;-77
2022/08/29 02:50:49;;;;;;;9.30;5.63;;;;;;;10.77;94.58;67970.47;4908077;29;20120;-77
2022/08/29 02:53:18;;;;;;;8.18;5.32;;;;;;;10.73;94.54;67965.34;4909243;29;20692;-77
2022/08/29 02:55:46;;;;;;;8.93;5.35;;;;;;;10.70;94.81;67965.16;4909238;29;20044;-76
2022/08/29 02:58:12;;;;;;;9.73;5.63;;;;;;;10.67;95.08;67959.09;4909864;29;20040;-77
2022/08/29 03:00:38;;;;;;;9.45;5.15;;;;;;;10.63;94.90;67956.66;4909660;29;20045;-76
2022/08/29 03:03:04;;;;;;;9.20;5.75;;;;;;;10.56;95.14;67949.31;4893179;29;20048;-76
2022/08/29 03:05:32;;;;;;;7.38;5.30;;;;;;;;;;4910129;29;20179;-77
2022/08/29 03:07:57;;;;;;;9.00;5.45;;;;;;;10.47;95.62;67939.66;4911695;29;20044;-76
2022/08/29 03:10:24;;;;;;;9.88;6.50;;;;;;;10.42;95.82;67931.31;4909340;29;20417;-77
2022/08/29 03:12:49;;;;;;;14.02;9.27;;;;;;;;;;4908051;29;20601;-77
2022/08/29 03:15:16;;;;;;;15.20;8.00;;;;;;;10.21;96.33;67907.47;4908427;29;20036;-78
2022/08/29 03:17:42;;;;;;;12.98;7.63;;;;;;;10.16;96.69;67905.59;4908862;29;20142;-78
2022/08/29 03:20:09;;;;;;;14.35;7.38;;;;;;;10.11;97.16;67897.25;4908087;29;20084;-78
2022/08/29 03:22:35;;;;;;;13.20;7.57;;;;;;;10.14;96.91;67905.97;4905887;29;20048;-78
2022/08/29 03:25:03;;;;;;;11.10;7.57;;;;;;;10.09;97.04;67897.06;4896456;29;20045;-78
2022/08/29 03:27:32;;;;;;;11.45;6.72;;;;;;;10.12;96.85;67903.13;4904778;29;20112;-78
2022/08/29 03:29:58;;;;;;;9.95;6.25;;;;;;;10.10;96.87;67896.13;4906075;29;20111;-78
2022/08/29 03:32:25;;;;;;;12.27;6.30;;;;;;;;;;4909181;29;20628;-78
2022/08/29 03:34:50;;;;;;;10.43;5.72;;;;;;;10.07;96.45;67898.03;4909493;29;20099;-78
2022/08/29 03:37:16;;;;;;;9.80;6.35;;;;;;;10.10;96.66;67898.78;4908994;29;20052;-78
2022/08/29 03:39:41;;;;;;;9.35;5.93;;;;;;;10.10;96.50;67898.22;4910311;29;20040;-78
2022/08/29 03:42:07;;;;;;;11.55;5.95;;;;;;;;;;4892767;29;20041;-78
2022/08/29 03:44:35;;;;;;;8.93;5.45;;;;;;;10.07;96.00;67895.38;4892250;29;20045;-78
2022/08/29 03:47:01;;;;;;;9.25;5.45;;;;;;;10.03;96.24;67888.16;4907753;29;20417;-78
2022/08/29 03:49:27;;;;;;;9.05;5.40;;;;;;;9.99;96.02;67883.09;4904715;29;20048;-77
2022/08/29 03:51:53;;;;;;;9.32;6.20;;;;;;;9.98;96.27;67887.81;4903254;29;20048;-77
2022/08/29 03:54:19;;;;;;;9.57;6.15;;;;;;;9.90;96.62;67874.00;4912164;29;20044;-77
2022/08/29 03:56:45;;;;;;;11.88;6.20;;;;;;;9.91;96.76;67875.13;4914246;29;20421;-79
2022/08/29 03:59:10;;;;;;;8.43;6.10;;;;;;;9.90;96.89;67876.66;4936686;29;20052;-79
2022/08/29 04:01:36;;;;;;;9.38;5.70;;;;;;;9.88;96.93;67871.72;4931338;29;20091;-80
2022/08/29 04:04:02;;;;;;;9.90;5.93;;;;;;;9.83;97.19;67868.16;4917653;29;20044;-79
2022/08/29 04:06:27;;;;;;;9.60;6.40;;;;;;;9.82;97.27;67864.38;4901518;29;20060;-80
2022/08/29 04:08:53;;;;;;;12.18;7.38;;;;;;;9.81;97.55;67865.88;4914683;29;20041;-80
2022/08/29 04:11:22;;;;;;;13.90;7.57;;;;;;;9.75;97.24;67856.97;4912797;29;20408;-79
2022/08/29 04:13:48;;;;;;;11.98;7.57;;;;;;;9.71;97.63;67855.09;4906711;29;20032;-80
2022/08/29 04:16:18;;;;;;;12.32;7.75;;;;;;;;;;4917344;29;20772;-80
2022/08/29 04:18:44;;;;;;;12.18;7.68;;;;;;;9.68;98.50;67854.94;4904679;29;20270;-79
2022/08/29 04:21:09;;;;;;;12.05;6.93;;;;;;;9.71;98.34;67855.66;4916120;29;20492;-78
2022/08/29 04:23:36;;;;;;;11.52;6.72;;;;;;;9.75;98.38;67861.72;4898080;29;20107;-78
2022/08/29 04:26:03;;;;;;;10.85;6.93;;;;;;;9.83;97.95;67865.50;4913465;29;20071;-78
2022/08/29 04:28:28;;;;;;;12.50;6.50;;;;;;;9.74;97.49;67855.84;4914170;29;20040;-78
2022/08/29 04:30:54;;;;;;;11.63;7.20;;;;;;;;;;4910399;29;20204;-79
2022/08/29 04:33:22;;;;;;;11.50;6.65;;;;;;;9.77;97.87;67858.69;4911394;29;20073;-80
2022/08/29 04:35:48;;;;;;;9.55;6.05;;;;;;;9.70;98.22;67853.97;4909188;29;20290;-79
2022/08/29 04:38:13;;;;;;;11.20;7.10;;;;;;;9.67;97.94;67850.59;4918187;29;20037;-78
2022/08/29 04:40:40;;;;;;;10.60;6.40;;;;;;;9.66;98.55;67846.78;4916866;29;20044;-79
2022/08/29 04:43:06;;;;;;;11.73;6.97;;;;;;;9.69;98.31;67853.41;4900614;29;20068;-79
2022/08/29 04:45:35;;;;;;;11.50;7.07;;;;;;;9.67;98.03;67848.47;4910570;29;20044;-79
2022/08/29 04:48:02;;;;;;;11.70;6.32;;;;;;;9.66;98.42;67850.00;4912765;29;20119;-79
2022/08/29 04:50:28;;;;;;;9.63;6.20;;;;;;;;;;4913360;29;20452;-80
2022/08/29 04:52:55;;;;;;;12.43;7.18;;;;;;;9.69;98.25;67852.84;4915110;29;20044;-80
2022/08/29 04:55:22;;;;;;;10.48;7.00;;;;;;;9.70;98.65;67854.53;4919987;29;20040;-80
2022/08/29 04:57:49;;;;;;;11.15;7.07;;;;;;;9.76;98.18;67860.22;4915626;29;20063;-80
2022/08/29 05:00:17;;;;;;;10.23;6.57;;;;;;;9.70;98.59;67851.88;4917282;29;20500;-80
2022/08/29 05:02:43;;;;;;;10.45;7.00;;;;;;;9.74;98.66;67857.94;4916001;29;20519;-80
2022/08/29 05:05:10;;;;;;;10.45;7.07;;;;;;;;;;4917665;29;20048;-80
2022/08/29 05:07:36;;;;;;;10.00;6.25;;;;;;;9.76;98.32;67860.22;4915461;29;20051;-80
2022/08/29 05:10:05;;;;;;;9.93;6.43;;;;;;;;;;4914758;29;20060;-79
2022/08/29 05:12:32;;;;;;;9.65;6.82;;;;;;;9.79;98.55;67863.63;4921949;29;20056;-80
2022/08/29 05:14:58;;;;;;;12.32;7.18;;;;;;;9.85;98.70;67867.75;4919903;29;20048;-80
2022/08/29 05:17:23;;;;;;;9.65;7.13;;;;;;;9.92;98.62;67875.69;4914226;29;20487;-80
2022/08/29 05:19:49;;;;;;;12.50;8.07;;;;;;;9.96;98.76;67882.34;4923137;29;20040;-80
2022/08/29 05:22:15;;;;;;;10.20;7.22;;;;;;;;;;4924343;29;20044;-80
2022/08/29 05:24:41;;;;;;;11.02;7.35;;;;;;;;;;4927562;29;20047;-80
2022/08/29 05:27:13;;;;;;;11.52;6.85;;;;;;;10.19;98.50;67905.19;4922728;29;20044;-80
2022/08/29 05:29:40;;;;;;;10.38;7.15;;;;;;;10.16;97.95;67902.94;4923819;29;20044;-80
2022/08/29 05:32:07;;;;;;;14.43;8.13;;;;;;;10.26;97.92;67913.13;4925460;29;20125;-80
2022/08/29 05:34:33;;;;;;;10.10;7.30;;;;;;;10.32;97.58;67919.97;4924549;29;20047;-80
2022/08/29 05:36:59;;;;;;;12.07;7.32;;;;;;;10.33;96.89;67921.66;4906799;29;20044;-81
2022/08/29 05:39:25;;;;;;;10.15;7.07;;;;;;;10.37;97.32;67930.97;4922537;29;20743;-81
2022/08/29 05:41:54;;;;;;;15.55;7.00;;;;;;;10.34;97.26;67928.13;4919832;29;20076;-80
2022/08/29 05:44:19;;;;;;;11.35;7.78;;;;;;;10.33;97.60;67924.34;4915984;29;20044;-79
2022/08/29 05:46:45;;;;;;;14.80;8.88;;;;;;;10.33;98.15;67924.34;4914394;29;20043;-80
2022/08/29 05:49:10;;;;;;;11.02;8.05;;;;;;;10.45;98.12;67937.38;4917294;29;20134;-80
2022/08/29 05:51:36;;;;;;;12.80;8.15;;;;;;;10.53;98.48;67943.22;4917044;29;20048;-80
2022/08/29 05:54:02;;;;;;;15.43;7.85;;;;;;;;;;4916040;29;20036;-80
2022/08/29 05:56:29;;;;;;;12.00;8.05;;;;;;;10.82;97.51;67970.25;4916133;29;20059;-79
2022/08/29 05:58:55;;;;;;;12.10;7.68;;;;;;;10.97;97.79;67994.69;4915178;29;20408;-80
2022/08/29 06:01:26;;;;;;;12.75;8.63;;;;;;;11.06;97.98;68002.81;4918174;29;20052;-80
2022/08/29 06:03:53;;;;;;;14.43;8.00;;;;;;;11.24;97.85;68022.69;4913458;29;20040;-80
2022/08/29 06:06:21;;;;;;;13.90;8.98;;;;;;;11.28;96.67;68026.66;4912819;29;20404;-79
2022/08/29 06:08:47;;;;;;;11.83;8.50;;;;;;;11.41;96.39;68041.41;4911305;29;20068;-78
2022/08/29 06:11:19;;;;;;;10.50;8.45;;;;;;;11.52;96.03;68053.34;4911572;29;20063;-80
2022/08/29 06:13:44;;;;;;;13.95;8.98;;;;;;;11.63;95.87;68065.84;4911737;29;20627;-79
2022/08/29 06:16:12;;;;;;;13.68;8.77;;;;;;;11.72;95.78;68075.50;4912293;29;20131;-80
2022/08/29 06:18:37;;;;;;;12.55;8.10;;;;;;;11.77;96.04;68083.84;4912077;29;20044;-78
2022/08/29 06:21:04;;;;;;;11.75;8.73;;;;;;;11.79;95.70;68086.09;4882487;29;20184;-79
2022/08/29 06:23:30;;;;;;;11.63;8.77;;;;;;;11.82;95.83;68086.28;4890897;29;20750;-80
2022/08/29 06:25:55;;;;;;;12.68;9.15;;;;;;;;;;4886252;29;20053;-80
2022/08/29 06:28:21;;;;;;;14.00;9.10;;;;;;;11.91;96.03;68097.09;4889411;29;20394;-79
2022/08/29 06:30:46;;;;;;;12.13;9.00;;;;;;;12.00;96.20;68106.19;4896093;29;20089;-79
2022/08/29 06:33:12;;;;;;;16.73;9.50;;;;;;;;;;4890797;29;20799;-80
2022/08/29 06:35:38;;;;;;;12.48;8.63;;;;;;;12.11;95.48;68119.25;4895330;29;20055;-79
2022/08/29 06:38:03;;;;;;;13.95;8.60;;;;;;;12.20;94.50;68131.59;4893717;29;20056;-79
2022/08/29 06:40:28;;;;;;;11.32;8.48;;;;;;;12.26;94.32;68135.72;4891606;29;20460;-78
2022/08/29 06:42:54;;;;;;;12.93;7.82;;;;;;;12.56;93.17;68168.69;4891673;29;20837;-80
2022/08/29 06:45:19;;;;;;;13.27;8.45;;;;;;;12.53;92.81;68165.84;4912592;29;20070;-79
2022/08/29 06:47:46;;;;;;;16.00;8.65;;;;;;;12.53;92.73;68160.50;4908800;29;20044;-80
2022/08/29 06:50:12;;;;;;;14.82;8.93;;;;;;;12.59;93.09;68172.09;4918118;29;20092;-78
2022/08/29 06:52:37;;;;;;;14.00;9.40;;;;;;;12.67;93.12;68183.88;4915729;29;20427;-80
2022/08/29 06:55:04;;;;;;;14.77;8.93;;;;;;;;;;4912708;29;20048;-80
2022/08/29 06:57:29;;;;;;;15.30;9.02;;;;;;;;;;4911712;29;20052;-79
2022/08/29 06:59:55;;;;;;;11.35;8.35;;;;;;;12.93;92.57;68210.19;4912354;29;20048;-78
2022/08/29 07:02:23;;;;;;;12.20;9.25;;;;;;;13.01;92.43;68219.28;4911873;29;20064;-78
2022/08/29 07:04:48;;;;;;;12.20;8.35;;;;;;;13.03;91.38;68221.56;4911279;29;20051;-81
2022/08/29 07:07:14;;;;;;;12.68;8.82;;;;;;;13.16;91.70;68235.75;4909025;29;20040;-79
2022/08/29 07:09:39;;;;;;;14.90;8.43;;;;;;;13.26;90.63;68247.16;4909787;29;20158;-81
2022/08/29 07:12:05;;;;;;;13.60;9.13;;;;;;;13.30;90.93;68251.16;4908632;29;20064;-80
2022/08/29 07:14:30;;;;;;;13.20;9.20;;;;;;;13.42;90.35;68264.22;4910872;29;20400;-79
2022/08/29 07:16:55;;;;;;;15.20;9.10;;;;;;;;;;4910115;29;20042;-80
2022/08/29 07:19:21;;;;;;;11.38;8.20;;;;;;;13.64;89.40;68288.69;4912474;29;20044;-80
2022/08/29 07:21:47;;;;;;;11.65;8.25;;;;;;;;;;4912362;29;20032;-79
2022/08/29 07:24:13;;;;;;;14.85;8.05;;;;;;;13.96;87.47;68325.09;4916892;29;20055;-79
2022/08/29 07:26:42;;;;;;;13.63;8.07;;;;;;;;;;4916043;29;20040;-79
2022/08/29 07:29:16;;;;;;;14.18;8.02;;;;;;;14.19;86.81;68344.78;4915795;29;20083;-79
2022/08/29 07:31:41;;;;;;;13.20;8.35;;;;;;;;;;4917132;29;20059;-80
2022/08/29 07:34:07;;;;;;;14.45;8.13;;;;;;;;;;4915152;29;30599;-78
2022/08/29 07:36:33;;;;;;;16.08;7.93;;;;;;;;;;4912072;29;20052;-80
2022/08/29 07:38:58;;;;;;;17.00;8.70;;;;;;;;;;4914486;29;20508;-80
2022/08/29 07:41:24;;;;;;;12.38;6.72;;;;;;;14.96;84.71;68436.13;4892075;29;20404;-79
2022/08/29 07:43:49;;;;;;;12.75;7.25;;;;;;;;;;4912293;29;20048;-79
2022/08/29 07:46:17;;;;;;;11.98;6.97;;;;;;;15.10;83.18;68446.09;4915272;29;20048;-78
2022/08/29 07:48:43;;;;;;;12.23;7.30;;;;;;;;;;4918924;29;20436;-78
2022/08/29 07:51:10;;;;;;;13.98;7.57;;;;;;;;;;4914992;29;20052;-80
2022/08/29 07:53:35;;;;;;;10.73;6.93;;;;;;;15.49;82.33;68489.97;4915602;29;20063;-78
2022/08/29 07:56:13;;;;;;;18.58;7.00;;;;;;;15.71;81.41;68514.50;4915164;29;20611;-80
2022/08/29 07:58:39;;;;;;;11.18;5.80;;;;;;;15.80;80.42;68529.53;4914295;29;20051;-78
2022/08/29 08:01:04;;;;;;;10.98;7.05;;;;;;;;;;4914249;29;20523;-79
2022/08/29 08:03:30;;;;;;;13.50;6.85;;;;;;;;;;4914750;29;20056;-80
2022/08/29 08:05:55;;;;;;;12.25;6.28;;;;;;;;;;4914119;29;20431;-79
2022/08/29 08:08:21;;;;;;;8.82;5.70;;;;;;;;;;4915120;29;20123;-80
2022/08/29 08:10:46;;;;;;;11.10;6.13;;;;;;;16.24;83.02;68579.13;4916619;29;20048;-80
2022/08/29 08:13:12;;;;;;;9.73;5.00;;;;;;;;;;4917038;29;20055;-79
2022/08/29 08:15:38;;;;;;;8.02;4.70;;;;;;;16.45;80.75;68596.53;4918422;29;20459;-77
2022/08/29 08:18:03;;;;;;;12.40;5.40;;;;;;;;;;4916756;29;20066;-78
2022/08/29 08:20:29;;;;;;;11.45;4.72;;;;;;;16.73;80.62;68627.34;4921397;29;20492;-77
2022/08/29 08:22:55;;;;;;;9.77;4.63;;;;;;;16.81;80.50;68641.88;4915129;29;20044;-78
2022/08/29 08:25:21;;;;;;;9.23;4.38;;;;;;;;;;4913654;29;20040;-78
2022/08/29 08:27:46;;;;;;;7.93;4.60;;;;;;;17.10;79.06;68674.94;4916278;29;20036;-79
2022/08/29 08:30:12;;;;;;;9.80;4.38;;;;;;;17.13;79.55;68677.78;4911707;29;20651;-78
2022/08/29 08:32:37;;;;;;;9.00;4.35;;;;;;;;;;4914870;29;20062;-76
2022/08/29 08:35:03;;;;;;;8.50;4.20;;;;;;;;;;4914594;29;20077;-77
2022/08/29 08:37:28;;;;;;;9.73;3.65;;;;;;;;;;4912706;29;20854;-78
2022/08/29 08:39:57;;;;;;;8.00;4.20;;;;;;;;;;4910435;29;20078;-78
2022/08/29 08:42:43;;;;;;;6.55;3.70;;;;;;;17.27;79.14;68693.19;4909778;29;20055;-79
2022/08/29 08:45:18;;;;;;;8.98;4.05;;;;;;;17.18;79.10;68678.13;4914612;29;20060;-80
2022/08/29 08:47:57;;;;;;;8.27;3.47;;;;;;;17.42;79.28;68709.72;4915001;29;20067;-80
2022/08/29 08:50:34;;;;;;;8.73;3.58;;;;;;;;;;4910853;29;20103;-80
2022/08/29 08:53:14;;;;;;;7.53;4.13;;;;;;;17.71;77.80;68736.88;4902347;29;20043;-80
2022/08/29 08:55:43;;;;;;;9.38;3.75;;;;;;;17.70;78.70;68735.72;4916657;29;20047;-80
2022/08/29 08:58:09;;;;;;;8.07;4.22;;;;;;;17.76;77.92;68747.97;4915548;29;20067;-79
2022/08/29 09:00:46;;;;;;;11.70;3.60;;;;;;;17.79;77.32;68746.03;4881736;29;20136;-79
2022/08/29 09:03:12;;;;;;;9.82;3.53;;;;;;;;;;4904918;29;20059;-79
2022/08/29 09:05:49;;;;;;;8.77;3.90;;;;;;;18.15;78.58;68785.97;4881886;29;20137;-78
2022/08/29 09:08:15;;;;;;;7.60;3.05;;;;;;;18.36;75.29;68809.38;4910318;29;20280;-79
2022/08/29 09:10:43;;;;;;;5.25;2.30;;;;;;;18.48;73.06;68823.66;4907542;29;20058;-79
2022/08/29 09:13:27;;;;;;;5.53;2.53;;;;;;;18.63;72.88;68839.63;4913758;29;20052;-78
2022/08/29 09:15:57;;;;;;;6.18;2.80;;;;;;;18.62;71.79;68839.06;4911196;29;20071;-78
2022/08/29 09:18:39;;;;;;;8.07;2.63;;;;;;;18.98;71.43;68878.47;4923240;29;20055;-79
2022/08/29 09:21:17;;;;;;;5.57;2.50;;;;;;;19.10;70.04;68892.78;4913075;29;20044;-79
2022/08/29 09:23:48;;;;;;;6.47;2.60;;;;;;;19.05;70.39;68887.06;4911091;29;20127;-79
2022/08/29 09:26:16;;;;;;;7.25;3.17;;;;;;;18.94;71.05;68874.50;4912281;29;20439;-78
2022/08/29 09:28:41;;;;;;;7.05;2.60;;;;;;;;;;4914001;29;20044;-78
2022/08/29 09:31:31;;;;;;;5.03;2.50;;;;;;;19.12;69.19;68900.44;4896440;29;20044;-78
2022/08/29 09:34:01;;;;;;;5.25;2.65;;;;;;;19.33;68.98;68917.88;4904884;29;20044;-79
2022/08/29 09:36:47;;;;;;;6.07;2.58;;;;;;;;;;4913698;29;20067;-78
2022/08/29 09:39:28;;;;;;;6.40;2.40;;;;;;;19.19;69.11;68902.47;4862390;29;20060;-79
2022/08/29 09:41:59;;;;;;;5.95;2.67;;;;;;;;;;4891493;29;20044;-80
2022/08/29 09:44:28;;;;;;;7.18;2.10;;;;;;;;;;4894161;29;20048;-80
2022/08/29 09:47:04;;;;;;;4.65;2.55;;;;;;;19.48;67.58;68935.03;4908184;29;20409;-78
2022/08/29 09:49:29;;;;;;;5.47;2.00;;;;;;;;;;4894528;29;20512;-78
2022/08/29 09:52:08;;;;;;;5.45;1.88;;;;;;;19.74;67.10;68963.63;4894703;29;20048;-78
2022/08/29 09:54:33;;;;;;;6.35;2.72;;;;;;;19.70;65.84;68965.03;4894491;29;20049;-79
2022/08/29 09:57:09;;;;;;;4.93;1.92;;;;;;;19.70;66.67;68956.91;4894940;29;20044;-78
2022/08/29 09:59:36;;;;;;;7.18;2.30;;;;;;;;;;4893481;29;20072;-79
2022/08/29 10:02:26;;;;;;;4.82;2.00;;;;;;;20.11;65.69;69004.78;4894766;29;20064;-79
2022/08/29 10:04:56;;;;;;;6.00;2.03;;;;;;;;;;4890443;29;20049;-78
2022/08/29 10:07:28;;;;;;;4.95;2.10;;;;;;;19.95;65.00;68993.03;4890798;29;20049;-79
2022/08/29 10:10:04;;;;;;;5.45;2.15;;;;;;;19.87;66.68;68978.47;4891809;29;20044;-78
2022/08/29 10:12:54;;;;;;;5.30;2.17;;;;;;;19.97;65.38;68989.91;4893627;29;20052;-79
2022/08/29 10:15:25;;;;;;;5.50;2.38;;;;;;;;;;4909185;29;20072;-78
2022/08/29 10:21:23;;;;;;;4.82;2.13;;;;;;;20.01;65.81;68993.91;4913238;29;20128;-79
2022/08/29 10:24:00;;;;;;;4.05;2.17;;;;;;;20.13;65.88;69004.94;4892719;29;20040;-78
2022/08/29 10:26:35;;;;;;;5.43;2.13;;;;;;;20.21;65.47;69016.78;4903640;29;20651;-79
2022/08/29 10:29:28;;;;;;;7.35;2.25;;;;;;;20.16;65.48;69011.06;4911349;29;20046;-79
2022/08/29 10:32:19;;;;;;;4.78;2.30;;;;;;;20.35;64.34;69037.06;4885405;29;20118;-78
2022/08/29 10:35:04;;;;;;;4.82;2.00;;;;;;;20.43;63.86;69041.38;4894240;29;20762;-79
2022/08/29 10:37:29;;;;;;;8.32;2.05;;;;;;;20.57;63.31;69061.66;4909278;29;20052;-78
2022/08/29 10:40:08;;;;;;;4.50;2.03;;;;;;;20.65;63.28;69063.25;4909494;29;20049;-78
2022/08/29 10:42:35;;;;;;;4.85;2.30;;;;;;;;;;4912395;29;20044;-78
2022/08/29 10:45:19;;;;;;;3.47;1.80;;;;;;;21.00;61.37;69101.56;4911140;29;20047;-78
2022/08/29 10:48:03;;;;;;;5.57;2.15;;;;;;;21.06;62.57;69111.72;4913609;29;20056;-79
2022/08/29 10:50:46;;;;;;;4.88;2.00;;;;;;;21.55;60.69;69160.66;4909776;29;20486;-79
2022/08/29 10:53:20;;;;;;;4.22;1.67;;;;;;;21.36;59.78;69145.50;4912367;29;20044;-79
2022/08/29 10:56:09;;;;;;;4.35;1.60;;;;;;;21.50;60.32;69157.66;4911660;29;20063;-78
2022/08/29 10:58:46;;;;;;;3.58;1.63;;;;;;;21.54;59.48;69162.81;4917633;29;20436;-78
2022/08/29 11:01:21;;;;;;;4.50;1.70;;;;;;;21.46;59.65;69155.78;4916855;29;20040;-78
2022/08/29 11:04:15;;;;;;;6.18;2.33;;;;;;;21.43;60.06;69152.94;4918900;29;20080;-79
2022/08/29 11:06:49;;;;;;;4.05;2.03;;;;;;;21.10;61.00;69115.72;4915631;29;20125;-78
2022/08/29 11:09:35;;;;;;;4.93;2.05;;;;;;;21.44;60.77;69150.81;4919666;29;20044;-78
2022/08/29 11:12:10;;;;;;;3.92;1.95;;;;;;;21.61;58.90;69170.84;4920715;29;20051;-78
2022/08/29 11:14:48;;;;;;;4.05;2.00;;;;;;;21.52;60.10;69157.25;4916516;29;20040;-78
2022/08/29 11:17:16;;;;;;;5.85;2.13;;;;;;;21.50;60.51;69160.38;4914123;29;20052;-78
2022/08/29 11:19:49;;;;;;;5.57;1.90;;;;;;;21.47;59.86;69162.38;4914209;29;20075;-78
2022/08/29 11:22:14;;;;;;;7.68;2.35;;;;;;;;;;4915312;29;20123;-78
2022/08/29 11:24:43;;;;;;;4.90;1.87;;;;;;;21.35;60.23;69144.34;4913391;29;20519;-78
2022/08/29 11:27:26;;;;;;;6.00;2.03;;;;;;;21.11;61.07;69116.88;4908047;29;20037;-78
2022/08/29 11:30:16;;;;;;;4.90;1.73;;;;;;;21.21;60.66;69128.31;4915298;29;20036;-78
2022/08/29 11:33:12;;;;;;;4.28;1.92;;;;;;;21.28;60.15;69136.31;4914993;29;20127;-79
2022/08/29 11:35:50;;;;;;;3.78;1.80;;;;;;;21.22;60.82;69123.47;4890127;29;20048;-78
2022/08/29 11:38:19;;;;;;;5.60;2.40;;;;;;;21.44;60.94;69154.09;4886695;29;20048;-78
2022/08/29 11:40:50;;;;;;;7.95;2.50;;;;;;;21.59;60.67;69168.53;4898525;29;20067;-78
2022/08/29 11:43:23;;;;;;;5.10;1.95;;;;;;;21.67;59.67;69177.13;4890957;29;20044;-78
2022/08/29 11:46:00;;;;;;;3.85;1.60;;;;;;;21.93;59.29;69209.03;4896046;29;20044;-78
2022/08/29 11:48:39;;;;;;;5.05;2.00;;;;;;;22.00;58.48;69214.31;4901096;29;20044;-78
2022/08/29 11:51:36;;;;;;;4.70;1.88;;;;;;;21.93;58.72;69208.44;4894921;29;20531;-78
2022/08/29 11:54:23;;;;;;;4.60;2.00;;;;;;;21.98;58.63;69212.03;4893427;29;20051;-78
2022/08/29 11:57:11;;;;;;;3.10;1.67;;;;;;;22.26;57.01;69240.81;4892753;29;20040;-80
2022/08/29 11:59:53;;;;;;;4.13;1.98;;;;;;;22.12;57.07;69224.75;4876746;29;20051;-80
2022/08/29 12:02:30;;;;;;;3.85;1.60;;;;;;;22.20;57.54;69233.38;4894140;29;20048;-80
2022/08/29 12:05:05;;;;;;;5.05;2.10;;;;;;;21.99;57.22;69215.31;4894030;29;20041;-80
2022/08/29 12:07:37;;;;;;;3.67;1.75;;;;;;;22.12;58.09;69230.19;4899561;29;20496;-80
2022/08/29 12:10:23;;;;;;;3.13;1.50;;;;;;;22.42;56.95;69260.72;4890369;29;20115;-81
2022/08/29 12:12:52;;;;;;;4.57;1.83;;;;;;;;;;4896802;29;20040;-81
2022/08/29 12:15:17;;;;;;;;;;;;;;;;;;4895604;29;20124;-82
2022/08/29 12:17:43;;;;;;;5.93;1.85;;;;;;;22.19;56.50;69238.22;4899353;29;19959;-81
2022/08/29 12:20:14;;;;;;;4.47;2.00;;;;;;;22.35;58.04;69250.53;4899270;29;20049;-81
2022/08/29 12:22:50;;;;;;;4.40;2.05;;;;;;;22.46;57.75;69268.00;4898669;29;20055;-81